Huntsville, Alabama
Current Conditions -  °F | °C
As of 3:53 PM on Monday 22 Dec 2014 (Local Time) from KHSV Reporting Station
Overcast Overcast  
Wind Chill: 11°   Ceiling: 800
Heat Index: 11°   Visibility: 10mi
Dew Point:   Wind: 14mph
Humidity: 83%   Direction: 130°SE
Pressure: 29.78"   Gusts: NA
Location:  34.73°N, 86.58°W
Report Text: KHSV 222153Z 13012KT 10SM BKN008 OVC013 11/08 A2978 RMK AO2 RAB02E14 SLP084 P0000 T01110083
Loading
Personal Weather Stations






























Interactive Weather Map New forecast layout! Learn more

10-Day Weather Forecast

Advertisements
Track Severe Weather on mobile